sensor_id;sensor_type;location;lat;lon;timestamp;pressure;altitude;pressure_sealevel;temperature;humidity
74631;BME280;63138;55.082;38.804;2024-01-16T00:01:35;97718.91;;;-2.84;100.00
74631;BME280;63138;55.082;38.804;2024-01-16T00:04:01;97724.22;;;-2.84;100.00
74631;BME280;63138;55.082;38.804;2024-01-16T00:06:27;97730.91;;;-2.80;100.00
74631;BME280;63138;55.082;38.804;2024-01-16T00:08:54;97734.25;;;-2.78;100.00
74631;BME280;63138;55.082;38.804;2024-01-16T00:11:20;97726.28;;;-2.78;100.00
74631;BME280;63138;55.082;38.804;2024-01-16T00:13:49;97716.31;;;-2.76;100.00
74631;BME280;63138;55.082;38.804;2024-01-16T00:16:15;97716.66;;;-2.79;100.00
74631;BME280;63138;55.082;38.804;2024-01-16T00:18:41;97708.34;;;-2.76;100.00
74631;BME280;63138;55.082;38.804;2024-01-16T00:21:07;97720.81;;;-2.76;100.00
74631;BME280;63138;55.082;38.804;2024-01-16T00:23:33;97731.44;;;-2.76;100.00
74631;BME280;63138;55.082;38.804;2024-01-16T00:25:59;97740.97;;;-2.74;100.00
74631;BME280;63138;55.082;38.804;2024-01-16T00:28:25;97736.47;;;-2.73;100.00
74631;BME280;63138;55.082;38.804;2024-01-16T00:30:52;97735.66;;;-2.74;100.00
74631;BME280;63138;55.082;38.804;2024-01-16T00:33:18;97732.28;;;-2.76;100.00
74631;BME280;63138;55.082;38.804;2024-01-16T00:35:44;97727.50;;;-2.72;100.00
74631;BME280;63138;55.082;38.804;2024-01-16T00:38:10;97723.19;;;-2.73;100.00
74631;BME280;63138;55.082;38.804;2024-01-16T00:40:36;97732.81;;;-2.72;100.00
74631;BME280;63138;55.082;38.804;2024-01-16T00:43:03;97722.03;;;-2.71;100.00
74631;BME280;63138;55.082;38.804;2024-01-16T00:45:29;97722.91;;;-2.70;100.00
74631;BME280;63138;55.082;38.804;2024-01-16T00:47:54;97724.69;;;-2.71;100.00
74631;BME280;63138;55.082;38.804;2024-01-16T00:50:20;97715.91;;;-2.71;100.00
74631;BME280;63138;55.082;38.804;2024-01-16T00:52:46;97704.59;;;-2.73;100.00
74631;BME280;63138;55.082;38.804;2024-01-16T00:55:12;97719.38;;;-2.71;100.00
74631;BME280;63138;55.082;38.804;2024-01-16T00:57:38;97715.63;;;-2.68;100.00
74631;BME280;63138;55.082;38.804;2024-01-16T01:00:29;97699.81;;;-2.70;100.00
74631;BME280;63138;55.082;38.804;2024-01-16T01:02:57;97721.06;;;-2.70;100.00
74631;BME280;63138;55.082;38.804;2024-01-16T01:05:24;97726.25;;;-2.68;100.00
74631;BME280;63138;55.082;38.804;2024-01-16T01:07:57;97717.28;;;-2.67;100.00
74631;BME280;63138;55.082;38.804;2024-01-16T01:10:24;97731.69;;;-2.70;100.00
74631;BME280;63138;55.082;38.804;2024-01-16T01:12:50;97714.06;;;-2.71;100.00
74631;BME280;63138;55.082;38.804;2024-01-16T01:15:20;97735.34;;;-2.71;100.00
74631;BME280;63138;55.082;38.804;2024-01-16T01:17:48;97730.69;;;-2.69;100.00
74631;BME280;63138;55.082;38.804;2024-01-16T01:20:15;97732.69;;;-2.71;100.00
74631;BME280;63138;55.082;38.804;2024-01-16T01:22:41;97731.69;;;-2.70;100.00
74631;BME280;63138;55.082;38.804;2024-01-16T01:25:07;97728.91;;;-2.68;100.00
74631;BME280;63138;55.082;38.804;2024-01-16T01:27:33;97729.03;;;-2.70;100.00
74631;BME280;63138;55.082;38.804;2024-01-16T01:30:01;97719.38;;;-2.71;100.00
74631;BME280;63138;55.082;38.804;2024-01-16T01:32:27;97724.69;;;-2.71;100.00
74631;BME280;63138;55.082;38.804;2024-01-16T01:34:53;97734.34;;;-2.70;100.00
74631;BME280;63138;55.082;38.804;2024-01-16T01:37:19;97722.19;;;-2.72;100.00
74631;BME280;63138;55.082;38.804;2024-01-16T01:40:11;97732.00;;;-2.73;100.00
74631;BME280;63138;55.082;38.804;2024-01-16T01:42:40;97730.34;;;-2.74;100.00
74631;BME280;63138;55.082;38.804;2024-01-16T01:45:07;97734.78;;;-2.74;100.00
74631;BME280;63138;55.082;38.804;2024-01-16T01:47:33;97728.66;;;-2.75;100.00
74631;BME280;63138;55.082;38.804;2024-01-16T01:50:01;97720.00;;;-2.77;100.00
74631;BME280;63138;55.082;38.804;2024-01-16T01:52:31;97719.16;;;-2.77;100.00
74631;BME280;63138;55.082;38.804;2024-01-16T01:54:58;97723.63;;;-2.78;100.00
74631;BME280;63138;55.082;38.804;2024-01-16T01:57:29;97715.66;;;-2.78;100.00
74631;BME280;63138;55.082;38.804;2024-01-16T01:59:56;97714.97;;;-2.80;100.00
74631;BME280;63138;55.082;38.804;2024-01-16T02:02:26;97714.97;;;-2.80;100.00
74631;BME280;63138;55.082;38.804;2024-01-16T02:04:53;97716.09;;;-2.82;100.00
74631;BME280;63138;55.082;38.804;2024-01-16T02:07:20;97707.44;;;-2.84;100.00
74631;BME280;63138;55.082;38.804;2024-01-16T02:09:46;97709.25;;;-2.85;100.00
74631;BME280;63138;55.082;38.804;2024-01-16T02:12:13;97713.03;;;-2.88;100.00
74631;BME280;63138;55.082;38.804;2024-01-16T02:14:39;97716.81;;;-2.90;100.00
74631;BME280;63138;55.082;38.804;2024-01-16T02:17:05;97695.88;;;-2.93;100.00
74631;BME280;63138;55.082;38.804;2024-01-16T02:19:31;97713.59;;;-2.94;100.00
74631;BME280;63138;55.082;38.804;2024-01-16T02:22:04;97715.56;;;-2.96;100.00
74631;BME280;63138;55.082;38.804;2024-01-16T02:24:32;97727.06;;;-2.95;100.00
74631;BME280;63138;55.082;38.804;2024-01-16T02:26:59;97698.41;;;-3.01;100.00
74631;BME280;63138;55.082;38.804;2024-01-16T02:29:25;97710.72;;;-3.00;100.00
74631;BME280;63138;55.082;38.804;2024-01-16T02:31:52;97735.88;;;-3.04;100.00
74631;BME280;63138;55.082;38.804;2024-01-16T02:34:18;97722.59;;;-3.04;100.00
74631;BME280;63138;55.082;38.804;2024-01-16T02:36:46;97710.47;;;-3.07;100.00
74631;BME280;63138;55.082;38.804;2024-01-16T02:39:12;97723.03;;;-3.09;100.00
74631;BME280;63138;55.082;38.804;2024-01-16T02:41:38;97729.47;;;-3.12;100.00
74631;BME280;63138;55.082;38.804;2024-01-16T02:44:07;97730.47;;;-3.13;100.00
74631;BME280;63138;55.082;38.804;2024-01-16T02:46:34;97723.78;;;-3.17;100.00
74631;BME280;63138;55.082;38.804;2024-01-16T02:49:01;97728.38;;;-3.19;100.00
74631;BME280;63138;55.082;38.804;2024-01-16T02:51:28;97718.75;;;-3.20;100.00
74631;BME280;63138;55.082;38.804;2024-01-16T02:53:54;97716.91;;;-3.19;100.00
74631;BME280;63138;55.082;38.804;2024-01-16T02:56:20;97713.72;;;-3.23;100.00
74631;BME280;63138;55.082;38.804;2024-01-16T02:58:46;97708.53;;;-3.24;100.00
74631;BME280;63138;55.082;38.804;2024-01-16T03:01:12;97709.53;;;-3.25;100.00
74631;BME280;63138;55.082;38.804;2024-01-16T03:03:39;97710.97;;;-3.31;100.00
74631;BME280;63138;55.082;38.804;2024-01-16T03:06:05;97694.31;;;-3.33;100.00
74631;BME280;63138;55.082;38.804;2024-01-16T03:08:31;97699.25;;;-3.38;100.00
74631;BME280;63138;55.082;38.804;2024-01-16T03:10:57;97706.47;;;-3.40;100.00
74631;BME280;63138;55.082;38.804;2024-01-16T03:13:24;97720.19;;;-3.45;100.00
74631;BME280;63138;55.082;38.804;2024-01-16T03:15:50;97734.56;;;-3.48;100.00
74631;BME280;63138;55.082;38.804;2024-01-16T03:18:16;97713.66;;;-3.51;100.00
74631;BME280;63138;55.082;38.804;2024-01-16T03:20:44;97721.31;;;-3.48;100.00
74631;BME280;63138;55.082;38.804;2024-01-16T03:23:09;97719.66;;;-3.49;100.00
74631;BME280;63138;55.082;38.804;2024-01-16T03:25:35;97726.78;;;-3.49;100.00
74631;BME280;63138;55.082;38.804;2024-01-16T03:28:05;97730.41;;;-3.50;100.00
74631;BME280;63138;55.082;38.804;2024-01-16T03:30:33;97723.72;;;-3.54;100.00
74631;BME280;63138;55.082;38.804;2024-01-16T03:33:00;97730.53;;;-3.52;100.00
74631;BME280;63138;55.082;38.804;2024-01-16T03:35:25;97737.66;;;-3.52;100.00
74631;BME280;63138;55.082;38.804;2024-01-16T03:37:51;97742.28;;;-3.54;100.00
74631;BME280;63138;55.082;38.804;2024-01-16T03:40:17;97746.72;;;-3.55;100.00
74631;BME280;63138;55.082;38.804;2024-01-16T03:42:44;97739.63;;;-3.54;100.00
74631;BME280;63138;55.082;38.804;2024-01-16T03:45:10;97727.31;;;-3.55;100.00
74631;BME280;63138;55.082;38.804;2024-01-16T03:47:36;97738.78;;;-3.55;100.00
74631;BME280;63138;55.082;38.804;2024-01-16T03:50:02;97730.97;;;-3.56;100.00
74631;BME280;63138;55.082;38.804;2024-01-16T03:52:29;97722.16;;;-3.57;100.00
74631;BME280;63138;55.082;38.804;2024-01-16T03:54:55;97721.31;;;-3.57;100.00
74631;BME280;63138;55.082;38.804;2024-01-16T03:57:21;97712.41;;;-3.56;100.00
74631;BME280;63138;55.082;38.804;2024-01-16T03:59:47;97718.53;;;-3.56;100.00
74631;BME280;63138;55.082;38.804;2024-01-16T04:02:14;97705.41;;;-3.57;100.00
74631;BME280;63138;55.082;38.804;2024-01-16T04:04:40;97704.84;;;-3.61;100.00
74631;BME280;63138;55.082;38.804;2024-01-16T04:07:06;97719.50;;;-3.57;100.00
74631;BME280;63138;55.082;38.804;2024-01-16T04:09:32;97722.47;;;-3.60;100.00
74631;BME280;63138;55.082;38.804;2024-01-16T04:11:58;97709.19;;;-3.60;100.00
74631;BME280;63138;55.082;38.804;2024-01-16T04:14:24;97703.34;;;-3.63;100.00
74631;BME280;63138;55.082;38.804;2024-01-16T04:16:50;97715.75;;;-3.64;100.00
74631;BME280;63138;55.082;38.804;2024-01-16T04:19:18;97703.75;;;-3.68;100.00
74631;BME280;63138;55.082;38.804;2024-01-16T04:21:44;97705.44;;;-3.67;100.00
74631;BME280;63138;55.082;38.804;2024-01-16T04:24:10;97700.41;;;-3.70;100.00
74631;BME280;63138;55.082;38.804;2024-01-16T04:26:36;97700.28;;;-3.69;100.00
74631;BME280;63138;55.082;38.804;2024-01-16T04:29:04;97712.28;;;-3.74;100.00
74631;BME280;63138;55.082;38.804;2024-01-16T04:31:30;97714.63;;;-3.71;100.00
74631;BME280;63138;55.082;38.804;2024-01-16T04:33:57;97714.94;;;-3.74;100.00
74631;BME280;63138;55.082;38.804;2024-01-16T04:36:23;97705.97;;;-3.73;100.00
74631;BME280;63138;55.082;38.804;2024-01-16T04:38:49;97708.91;;;-3.76;100.00
74631;BME280;63138;55.082;38.804;2024-01-16T04:41:18;97723.84;;;-3.75;100.00
74631;BME280;63138;55.082;38.804;2024-01-16T04:43:46;97728.34;;;-3.76;100.00
74631;BME280;63138;55.082;38.804;2024-01-16T04:46:14;97728.34;;;-3.76;100.00
74631;BME280;63138;55.082;38.804;2024-01-16T04:48:40;97715.06;;;-3.76;100.00
74631;BME280;63138;55.082;38.804;2024-01-16T04:51:06;97729.16;;;-3.75;100.00
74631;BME280;63138;55.082;38.804;2024-01-16T04:53:33;97721.34;;;-3.77;100.00
74631;BME280;63138;55.082;38.804;2024-01-16T04:55:59;97716.88;;;-3.76;100.00
74631;BME280;63138;55.082;38.804;2024-01-16T04:58:25;97715.22;;;-3.77;100.00
74631;BME280;63138;55.082;38.804;2024-01-16T05:00:53;97707.13;;;-3.76;100.00
74631;BME280;63138;55.082;38.804;2024-01-16T05:03:20;97717.72;;;-3.76;100.00
74631;BME280;63138;55.082;38.804;2024-01-16T05:05:45;97714.94;;;-3.74;100.00
74631;BME280;63138;55.082;38.804;2024-01-16T05:08:11;97709.63;;;-3.74;100.00
74631;BME280;63138;55.082;38.804;2024-01-16T05:10:37;97694.69;;;-3.75;100.00
74631;BME280;63138;55.082;38.804;2024-01-16T05:13:03;97695.25;;;-3.72;100.00
74631;BME280;63138;55.082;38.804;2024-01-16T05:15:29;97697.88;;;-3.72;100.00
74631;BME280;63138;55.082;38.804;2024-01-16T05:17:55;97704.88;;;-3.71;100.00
74631;BME280;63138;55.082;38.804;2024-01-16T05:20:21;97718.97;;;-3.70;100.00
74631;BME280;63138;55.082;38.804;2024-01-16T05:22:47;97728.59;;;-3.69;100.00
74631;BME280;63138;55.082;38.804;2024-01-16T05:25:13;97726.66;;;-3.67;100.00
74631;BME280;63138;55.082;38.804;2024-01-16T05:27:39;97749.81;;;-3.69;100.00
74631;BME280;63138;55.082;38.804;2024-01-16T05:30:05;97744.22;;;-3.66;100.00
74631;BME280;63138;55.082;38.804;2024-01-16T05:32:35;97747.56;;;-3.64;100.00
74631;BME280;63138;55.082;38.804;2024-01-16T05:35:01;97743.13;;;-3.63;100.00
74631;BME280;63138;55.082;38.804;2024-01-16T05:37:29;97736.69;;;-3.61;100.00
74631;BME280;63138;55.082;38.804;2024-01-16T05:39:55;97725.94;;;-3.59;100.00
74631;BME280;63138;55.082;38.804;2024-01-16T05:42:21;97735.72;;;-3.60;100.00
74631;BME280;63138;55.082;38.804;2024-01-16T05:44:48;97732.91;;;-3.58;100.00
74631;BME280;63138;55.082;38.804;2024-01-16T05:47:14;97731.81;;;-3.56;100.00
74631;BME280;63138;55.082;38.804;2024-01-16T05:49:42;97723.84;;;-3.56;100.00
74631;BME280;63138;55.082;38.804;2024-01-16T05:52:09;97729.16;;;-3.56;100.00
74631;BME280;63138;55.082;38.804;2024-01-16T05:54:35;97727.19;;;-3.54;100.00
74631;BME280;63138;55.082;38.804;2024-01-16T05:57:01;97725.22;;;-3.52;100.00
74631;BME280;63138;55.082;38.804;2024-01-16T05:59:28;97723.25;;;-3.50;100.00
74631;BME280;63138;55.082;38.804;2024-01-16T06:01:54;97726.91;;;-3.51;100.00
74631;BME280;63138;55.082;38.804;2024-01-16T06:04:20;97729.44;;;-3.49;100.00
74631;BME280;63138;55.082;38.804;2024-01-16T06:06:46;97726.47;;;-3.46;100.00
74631;BME280;63138;55.082;38.804;2024-01-16T06:09:13;97713.75;;;-3.42;100.00
74631;BME280;63138;55.082;38.804;2024-01-16T06:11:40;97714.75;;;-3.43;100.00
74631;BME280;63138;55.082;38.804;2024-01-16T06:14:09;97712.66;;;-3.40;100.00
74631;BME280;63138;55.082;38.804;2024-01-16T06:16:35;97711.50;;;-3.37;100.00
74631;BME280;63138;55.082;38.804;2024-01-16T06:19:02;97707.88;;;-3.36;100.00
74631;BME280;63138;55.082;38.804;2024-01-16T06:21:28;97709.53;;;-3.35;100.00
74631;BME280;63138;55.082;38.804;2024-01-16T06:23:54;97715.41;;;-3.32;100.00
74631;BME280;63138;55.082;38.804;2024-01-16T06:26:20;97713.44;;;-3.30;100.00
74631;BME280;63138;55.082;38.804;2024-01-16T06:28:47;97714.31;;;-3.29;100.00
74631;BME280;63138;55.082;38.804;2024-01-16T06:31:13;97704.50;;;-3.29;100.00
74631;BME280;63138;55.082;38.804;2024-01-16T06:33:39;97727.13;;;-3.24;100.00
74631;BME280;63138;55.082;38.804;2024-01-16T06:36:06;97706.75;;;-3.24;100.00
74631;BME280;63138;55.082;38.804;2024-01-16T06:38:32;97722.38;;;-3.21;100.00
74631;BME280;63138;55.082;38.804;2024-01-16T06:40:58;97723.06;;;-3.19;100.00
74631;BME280;63138;55.082;38.804;2024-01-16T06:43:25;97734.41;;;-3.17;100.00
74631;BME280;63138;55.082;38.804;2024-01-16T06:45:51;97722.09;;;-3.18;100.00
74631;BME280;63138;55.082;38.804;2024-01-16T06:48:17;97727.13;;;-3.15;100.00
74631;BME280;63138;55.082;38.804;2024-01-16T06:50:44;97726.13;;;-3.14;100.00
74631;BME280;63138;55.082;38.804;2024-01-16T06:53:10;97724.16;;;-3.12;100.00
74631;BME280;63138;55.082;38.804;2024-01-16T06:55:36;97724.31;;;-3.13;100.00
74631;BME280;63138;55.082;38.804;2024-01-16T06:58:02;97727.81;;;-3.13;100.00
74631;BME280;63138;55.082;38.804;2024-01-16T07:00:28;97724.00;;;-3.10;100.00
74631;BME280;63138;55.082;38.804;2024-01-16T07:02:55;97714.25;;;-3.10;100.00
74631;BME280;63138;55.082;38.804;2024-01-16T07:05:21;97714.63;;;-3.04;100.00
74631;BME280;63138;55.082;38.804;2024-01-16T07:07:48;97714.63;;;-3.04;100.00
74631;BME280;63138;55.082;38.804;2024-01-16T07:10:14;97704.72;;;-3.02;100.00
74631;BME280;63138;55.082;38.804;2024-01-16T07:12:45;97694.94;;;-3.02;100.00
74631;BME280;63138;55.082;38.804;2024-01-16T07:15:12;97712.91;;;-2.96;100.00
74631;BME280;63138;55.082;38.804;2024-01-16T07:17:39;97702.31;;;-2.96;100.00
74631;BME280;63138;55.082;38.804;2024-01-16T07:20:05;97706.50;;;-2.93;100.00
74631;BME280;63138;55.082;38.804;2024-01-16T07:22:33;97699.06;;;-2.90;100.00
74631;BME280;63138;55.082;38.804;2024-01-16T07:25:01;97695.28;;;-2.87;100.00
74631;BME280;63138;55.082;38.804;2024-01-16T07:27:29;97690.97;;;-2.88;100.00
74631;BME280;63138;55.082;38.804;2024-01-16T07:29:55;97694.16;;;-2.84;100.00
74631;BME280;63138;55.082;38.804;2024-01-16T07:32:22;97688.41;;;-2.80;100.00
74631;BME280;63138;55.082;38.804;2024-01-16T07:34:48;97688.66;;;-2.73;100.00
74631;BME280;63138;55.082;38.804;2024-01-16T07:37:14;97686.81;;;-2.73;100.00
74631;BME280;63138;55.082;38.804;2024-01-16T07:39:41;97679.78;;;-2.64;100.00
74631;BME280;63138;55.082;38.804;2024-01-16T07:42:07;97683.28;;;-2.63;100.00
74631;BME280;63138;55.082;38.804;2024-01-16T07:44:33;97681.16;;;-2.60;100.00
74631;BME280;63138;55.082;38.804;2024-01-16T07:46:59;97669.56;;;-2.59;100.00
74631;BME280;63138;55.082;38.804;2024-01-16T07:49:26;97673.72;;;-2.56;100.00
74631;BME280;63138;55.082;38.804;2024-01-16T07:51:52;97672.06;;;-2.57;100.00
74631;BME280;63138;55.082;38.804;2024-01-16T07:54:18;97669.09;;;-2.54;100.00
74631;BME280;63138;55.082;38.804;2024-01-16T07:56:44;97668.78;;;-2.51;100.00
74631;BME280;63138;55.082;38.804;2024-01-16T07:59:10;97682.63;;;-2.47;100.00
74631;BME280;63138;55.082;38.804;2024-01-16T08:01:36;97675.88;;;-2.42;100.00
74631;BME280;63138;55.082;38.804;2024-01-16T08:04:03;97671.84;;;-2.46;100.00
74631;BME280;63138;55.082;38.804;2024-01-16T08:06:29;97665.53;;;-2.45;100.00
74631;BME280;63138;55.082;38.804;2024-01-16T08:08:55;97654.91;;;-2.45;100.00
74631;BME280;63138;55.082;38.804;2024-01-16T08:11:21;97652.63;;;-2.40;100.00
74631;BME280;63138;55.082;38.804;2024-01-16T08:13:47;97654.16;;;-2.37;100.00
74631;BME280;63138;55.082;38.804;2024-01-16T08:16:13;97654.59;;;-2.42;100.00
74631;BME280;63138;55.082;38.804;2024-01-16T08:18:39;97657.88;;;-2.48;100.00
74631;BME280;63138;55.082;38.804;2024-01-16T08:21:05;97657.41;;;-2.43;100.00
74631;BME280;63138;55.082;38.804;2024-01-16T08:23:31;97652.72;;;-2.50;100.00
74631;BME280;63138;55.082;38.804;2024-01-16T08:25:57;97652.34;;;-2.37;100.00
74631;BME280;63138;55.082;38.804;2024-01-16T08:28:24;97647.78;;;-2.44;100.00
74631;BME280;63138;55.082;38.804;2024-01-16T08:30:50;97639.94;;;-2.46;100.00
74631;BME280;63138;55.082;38.804;2024-01-16T08:33:16;97630.38;;;-2.39;100.00
74631;BME280;63138;55.082;38.804;2024-01-16T08:35:45;97644.59;;;-2.48;100.00
74631;BME280;63138;55.082;38.804;2024-01-16T08:38:11;97638.25;;;-2.47;100.00
74631;BME280;63138;55.082;38.804;2024-01-16T08:40:37;97638.59;;;-2.50;100.00
74631;BME280;63138;55.082;38.804;2024-01-16T08:43:04;97647.09;;;-2.46;100.00
74631;BME280;63138;55.082;38.804;2024-01-16T08:45:30;97643.97;;;-2.42;100.00
74631;BME280;63138;55.082;38.804;2024-01-16T08:47:55;97645.94;;;-2.44;100.00
74631;BME280;63138;55.082;38.804;2024-01-16T08:50:22;97649.00;;;-2.39;100.00
74631;BME280;63138;55.082;38.804;2024-01-16T08:52:48;97641.94;;;-2.30;100.00
74631;BME280;63138;55.082;38.804;2024-01-16T08:55:14;97629.84;;;-2.24;100.00
74631;BME280;63138;55.082;38.804;2024-01-16T08:57:40;97625.31;;;-2.32;100.00
74631;BME280;63138;55.082;38.804;2024-01-16T09:00:07;97625.50;;;-2.25;100.00
74631;BME280;63138;55.082;38.804;2024-01-16T09:02:35;97624.00;;;-2.28;100.00
74631;BME280;63138;55.082;38.804;2024-01-16T09:05:03;97624.25;;;-2.21;100.00
74631;BME280;63138;55.082;38.804;2024-01-16T09:07:31;97617.91;;;-2.20;100.00
74631;BME280;63138;55.082;38.804;2024-01-16T09:09:56;97622.47;;;-2.13;100.00
74631;BME280;63138;55.082;38.804;2024-01-16T09:12:23;97620.53;;;-2.10;100.00
74631;BME280;63138;55.082;38.804;2024-01-16T09:14:50;97614.97;;;-2.17;100.00
74631;BME280;63138;55.082;38.804;2024-01-16T09:17:17;97613.28;;;-2.18;100.00
74631;BME280;63138;55.082;38.804;2024-01-16T09:19:42;97616.63;;;-2.16;100.00
74631;BME280;63138;55.082;38.804;2024-01-16T09:22:08;97617.31;;;-2.14;100.00
74631;BME280;63138;55.082;38.804;2024-01-16T09:24:34;97617.38;;;-2.06;100.00
74631;BME280;63138;55.082;38.804;2024-01-16T09:27:01;97623.63;;;-2.15;100.00
74631;BME280;63138;55.082;38.804;2024-01-16T09:29:27;97611.53;;;-2.09;100.00
74631;BME280;63138;55.082;38.804;2024-01-16T09:31:53;97598.91;;;-2.07;100.00
74631;BME280;63138;55.082;38.804;2024-01-16T09:34:19;97596.63;;;-2.02;100.00
74631;BME280;63138;55.082;38.804;2024-01-16T09:36:45;97587.75;;;-2.11;100.00
74631;BME280;63138;55.082;38.804;2024-01-16T09:39:12;97583.19;;;-2.01;100.00
74631;BME280;63138;55.082;38.804;2024-01-16T09:41:39;97577.84;;;-2.01;100.00
74631;BME280;63138;55.082;38.804;2024-01-16T09:44:06;97578.84;;;-2.02;100.00
74631;BME280;63138;55.082;38.804;2024-01-16T09:46:34;97584.38;;;-1.95;100.00
74631;BME280;63138;55.082;38.804;2024-01-16T09:49:23;97577.06;;;-1.93;100.00
74631;BME280;63138;55.082;38.804;2024-01-16T09:51:49;97579.88;;;-1.95;100.00
74631;BME280;63138;55.082;38.804;2024-01-16T09:54:15;97578.09;;;-1.94;100.00
74631;BME280;63138;55.082;38.804;2024-01-16T09:56:43;97587.72;;;-1.93;100.00
74631;BME280;63138;55.082;38.804;2024-01-16T09:59:09;97577.31;;;-1.86;100.00
74631;BME280;63138;55.082;38.804;2024-01-16T10:01:38;97576.84;;;-1.82;100.00
74631;BME280;63138;55.082;38.804;2024-01-16T10:04:04;97588.56;;;-1.93;100.00
74631;BME280;63138;55.082;38.804;2024-01-16T10:06:31;97576.41;;;-1.95;100.00
74631;BME280;63138;55.082;38.804;2024-01-16T10:08:59;97572.41;;;-1.99;100.00
74631;BME280;63138;55.082;38.804;2024-01-16T10:11:25;97578.53;;;-1.99;100.00
74631;BME280;63138;55.082;38.804;2024-01-16T10:13:51;97567.75;;;-1.97;100.00
74631;BME280;63138;55.082;38.804;2024-01-16T10:16:17;97587.25;;;-1.88;100.00
74631;BME280;63138;55.082;38.804;2024-01-16T10:18:43;97578.09;;;-1.94;100.00
74631;BME280;63138;55.082;38.804;2024-01-16T10:21:20;97578.91;;;-1.94;100.00
74631;BME280;63138;55.082;38.804;2024-01-16T10:23:50;97577.75;;;-1.91;100.00
74631;BME280;63138;55.082;38.804;2024-01-16T10:26:17;97571.56;;;-2.00;100.00
74631;BME280;63138;55.082;38.804;2024-01-16T10:28:46;97568.91;;;-2.00;100.00
74631;BME280;63138;55.082;38.804;2024-01-16T10:31:13;97568.03;;;-2.00;100.00
74631;BME280;63138;55.082;38.804;2024-01-16T10:33:42;97566.91;;;-1.98;100.00
74631;BME280;63138;55.082;38.804;2024-01-16T10:36:15;97564.94;;;-1.96;100.00
74631;BME280;63138;55.082;38.804;2024-01-16T10:38:43;97565.91;;;-1.97;100.00
74631;BME280;63138;55.082;38.804;2024-01-16T10:43:41;97566.78;;;-1.96;100.00
74631;BME280;63138;55.082;38.804;2024-01-16T10:46:11;97565.31;;;-1.90;100.00
74631;BME280;63138;55.082;38.804;2024-01-16T10:48:39;97554.00;;;-1.93;100.00
74631;BME280;63138;55.082;38.804;2024-01-16T10:51:06;97549.00;;;-1.87;100.00
74631;BME280;63138;55.082;38.804;2024-01-16T10:53:35;97543.34;;;-1.93;100.00
74631;BME280;63138;55.082;38.804;2024-01-16T10:56:02;97540.00;;;-1.95;100.00
74631;BME280;63138;55.082;38.804;2024-01-16T10:58:31;97536.19;;;-1.92;100.00
74631;BME280;63138;55.082;38.804;2024-01-16T11:01:04;97530.34;;;-1.96;100.00
74631;BME280;63138;55.082;38.804;2024-01-16T11:03:53;97528.66;;;-1.97;100.00
74631;BME280;63138;55.082;38.804;2024-01-16T11:06:23;97535.53;;;-1.94;100.00
74631;BME280;63138;55.082;38.804;2024-01-16T11:08:49;97527.69;;;-1.96;100.00
74631;BME280;63138;55.082;38.804;2024-01-16T11:11:16;97536.34;;;-1.94;100.00
74631;BME280;63138;55.082;38.804;2024-01-16T11:13:43;97524.03;;;-1.95;100.00
74631;BME280;63138;55.082;38.804;2024-01-16T11:16:14;97518.19;;;-1.98;100.00
74631;BME280;63138;55.082;38.804;2024-01-16T11:18:40;97517.47;;;-2.08;100.00
74631;BME280;63138;55.082;38.804;2024-01-16T11:21:11;97511.00;;;-2.06;100.00
74631;BME280;63138;55.082;38.804;2024-01-16T11:23:39;97515.63;;;-2.08;100.00
74631;BME280;63138;55.082;38.804;2024-01-16T11:26:24;97510.03;;;-2.05;100.00
74631;BME280;63138;55.082;38.804;2024-01-16T11:28:52;97504.03;;;-2.07;100.00
74631;BME280;63138;55.082;38.804;2024-01-16T11:31:32;97494.00;;;-2.13;100.00
74631;BME280;63138;55.082;38.804;2024-01-16T11:34:03;97488.38;;;-2.10;100.00
74631;BME280;63138;55.082;38.804;2024-01-16T11:36:49;97481.06;;;-2.08;100.00
74631;BME280;63138;55.082;38.804;2024-01-16T11:39:22;97486.25;;;-2.06;100.00
74631;BME280;63138;55.082;38.804;2024-01-16T11:41:56;97481.75;;;-2.06;100.00
74631;BME280;63138;55.082;38.804;2024-01-16T11:44:47;97471.47;;;-2.01;100.00
74631;BME280;63138;55.082;38.804;2024-01-16T11:49:49;97476.28;;;-2.04;100.00
74631;BME280;63138;55.082;38.804;2024-01-16T11:52:39;97460.97;;;-2.02;100.00
74631;BME280;63138;55.082;38.804;2024-01-16T11:55:27;97466.47;;;-2.04;100.00
74631;BME280;63138;55.082;38.804;2024-01-16T11:58:32;97455.28;;;-2.07;100.00
74631;BME280;63138;55.082;38.804;2024-01-16T12:01:05;97461.47;;;-2.07;100.00
74631;BME280;63138;55.082;38.804;2024-01-16T12:03:34;97453.16;;;-2.04;100.00
74631;BME280;63138;55.082;38.804;2024-01-16T12:06:02;97455.81;;;-2.04;100.00
74631;BME280;63138;55.082;38.804;2024-01-16T12:08:29;97460.16;;;-2.03;100.00
74631;BME280;63138;55.082;38.804;2024-01-16T12:10:55;97463.13;;;-2.06;100.00
74631;BME280;63138;55.082;38.804;2024-01-16T12:13:21;97458.97;;;-2.08;100.00
74631;BME280;63138;55.082;38.804;2024-01-16T12:15:47;97454.25;;;-2.15;100.00
74631;BME280;63138;55.082;38.804;2024-01-16T12:18:20;97452.47;;;-2.14;100.00
74631;BME280;63138;55.082;38.804;2024-01-16T12:20:46;97450.47;;;-2.12;100.00
74631;BME280;63138;55.082;38.804;2024-01-16T12:23:13;97451.75;;;-2.16;100.00
74631;BME280;63138;55.082;38.804;2024-01-16T12:25:40;97450.09;;;-2.17;100.00
74631;BME280;63138;55.082;38.804;2024-01-16T12:28:07;97444.13;;;-2.19;100.00
74631;BME280;63138;55.082;38.804;2024-01-16T12:30:37;97439.78;;;-2.20;100.00
74631;BME280;63138;55.082;38.804;2024-01-16T12:33:11;97433.09;;;-2.24;100.00
74631;BME280;63138;55.082;38.804;2024-01-16T12:35:40;97433.94;;;-2.24;100.00
74631;BME280;63138;55.082;38.804;2024-01-16T12:38:08;97429.94;;;-2.28;100.00
74631;BME280;63138;55.082;38.804;2024-01-16T12:40:43;97419.97;;;-2.26;100.00
74631;BME280;63138;55.082;38.804;2024-01-16T12:43:11;97423.09;;;-2.31;100.00
74631;BME280;63138;55.082;38.804;2024-01-16T12:45:39;97418.09;;;-2.34;100.00
74631;BME280;63138;55.082;38.804;2024-01-16T12:48:06;97413.91;;;-2.36;100.00